Time;durP1;ratioP1;P1;durP2;ratioP2;P2;SDS_P1;SDS_P2;PMS_P1;PMS_P2;Temp;Humidity;BMP_temperature;BMP_pressure;BME280_temperature;BME280_humidity;BME280_pressure;Samples;Min_cycle;Max_cycle;Signal;HPM_P1;HPM_P2
2021/12/27 00:01:48;;;;;;;7.40;2.65;;;;;;;;;;5155335;27;20046;-77
2021/12/27 00:04:15;;;;;;;12.15;2.53;;;;;;;;;;5154863;27;20014;-76
2021/12/27 00:06:43;;;;;;;14.32;3.13;;;;;;;;;;5136332;27;20026;-77
2021/12/27 00:09:10;;;;;;;9.95;2.03;;;;;;;;;;5155087;27;20026;-76
2021/12/27 00:11:37;;;;;;;11.93;2.50;;;;;;;;;;5155103;27;20394;-75
2021/12/27 00:14:05;;;;;;;11.63;2.40;;;;;;;;;;5155119;27;20022;-75
2021/12/27 00:16:32;;;;;;;10.73;2.30;;;;;;;;;;5155256;27;20019;-76
2021/12/27 00:18:59;;;;;;;12.30;2.38;;;;;;;;;;5155167;27;20033;-76
2021/12/27 00:21:26;;;;;;;12.77;2.30;;;;;;;;;;5155043;27;20084;-76
2021/12/27 00:23:53;;;;;;;11.10;2.40;;;;;;;;;;5155078;27;20023;-76
2021/12/27 00:26:20;;;;;;;12.30;2.30;;;;;;;;;;5155118;27;20356;-76
2021/12/27 00:28:47;;;;;;;11.45;2.85;;;;;;;;;;5154934;27;20025;-76
2021/12/27 00:31:15;;;;;;;13.00;2.88;;;;;;;;;;5154817;27;20023;-75
2021/12/27 00:33:42;;;;;;;9.73;2.25;;;;;;;;;;5154750;27;20048;-76
2021/12/27 00:36:09;;;;;;;12.98;2.50;;;;;;;;;;5154798;27;20022;-76
2021/12/27 00:38:36;;;;;;;13.73;2.95;;;;;;;;;;5154691;27;20031;-77
2021/12/27 00:41:03;;;;;;;11.27;2.63;;;;;;;;;;5154743;27;20031;-77
2021/12/27 00:43:30;;;;;;;12.13;2.58;;;;;;;;;;5154736;27;20487;-77
2021/12/27 00:45:57;;;;;;;13.32;2.80;;;;;;;;;;5136079;27;20030;-76
2021/12/27 00:48:25;;;;;;;12.88;2.70;;;;;;;;;;5135887;27;20019;-76
2021/12/27 00:50:52;;;;;;;10.98;2.40;;;;;;;;;;5135707;27;20534;-76
2021/12/27 00:53:19;;;;;;;9.93;2.38;;;;;;;;;;5154448;27;20114;-76
2021/12/27 00:55:46;;;;;;;11.50;2.53;;;;;;;;;;5154578;27;20494;-77
2021/12/27 00:58:13;;;;;;;11.10;2.75;;;;;;;;;;5154660;27;20026;-78
2021/12/27 01:00:40;;;;;;;9.48;2.22;;;;;;;;;;5135600;27;20159;-77
2021/12/27 01:03:08;;;;;;;13.75;2.60;;;;;;;;;;5135336;27;20026;-77
2021/12/27 01:05:35;;;;;;;11.23;2.63;;;;;;;;;;5154250;27;20067;-78
2021/12/27 01:08:02;;;;;;;14.75;2.90;;;;;;;;;;5135922;27;20018;-75
2021/12/27 01:11:02;;;;;;;14.13;2.78;;;;;;;;;;5154469;27;20023;-77
2021/12/27 01:18:14;;;;;;;17.38;3.22;;;;;;;;;;5157830;27;20105;-76
2021/12/27 01:20:42;;;;;;;13.25;2.92;;;;;;;;;;5158484;27;20019;-76
2021/12/27 01:23:10;;;;;;;11.75;2.97;;;;;;;;;;5139687;27;20022;-76
2021/12/27 01:25:37;;;;;;;11.90;2.70;;;;;;;;;;5158331;27;20018;-77
2021/12/27 01:28:05;;;;;;;8.95;2.65;;;;;;;;;;5139609;27;20391;-77
2021/12/27 01:30:37;;;;;;;13.32;2.08;;;;;;;;;;5158223;27;20520;-77
2021/12/27 01:33:05;;;;;;;11.38;2.45;;;;;;;;;;5158561;27;20566;-77
2021/12/27 01:35:34;;;;;;;10.93;2.60;;;;;;;;;;5139693;27;20026;-77
2021/12/27 01:38:02;;;;;;;9.52;2.03;;;;;;;;;;5158241;27;20023;-77
2021/12/27 01:40:29;;;;;;;12.25;2.40;;;;;;;;;;5158066;27;20046;-77
2021/12/27 01:43:10;;;;;;;11.40;3.08;;;;;;;;;;5158006;27;20027;-76
2021/12/27 01:45:39;;;;;;;10.90;2.53;;;;;;;;;;5157982;27;20015;-76
2021/12/27 01:48:07;;;;;;;10.07;2.47;;;;;;;;;;5157955;27;20102;-77
2021/12/27 01:50:36;;;;;;;10.55;2.38;;;;;;;;;;5138947;27;20023;-76
2021/12/27 01:53:04;;;;;;;12.25;2.38;;;;;;;;;;5157742;27;20045;-76
2021/12/27 01:55:31;;;;;;;7.47;1.92;;;;;;;;;;5157853;27;20030;-77
2021/12/27 01:57:58;;;;;;;10.55;2.20;;;;;;;;;;5157922;27;20033;-77
2021/12/27 02:00:26;;;;;;;7.40;2.10;;;;;;;;;;5157648;27;20046;-76
2021/12/27 02:02:53;;;;;;;12.70;2.45;;;;;;;;;;5157618;27;20420;-77
2021/12/27 02:05:21;;;;;;;9.75;2.53;;;;;;;;;;5139051;27;20023;-77
2021/12/27 02:07:48;;;;;;;9.40;2.25;;;;;;;;;;5139023;27;20019;-76
2021/12/27 02:10:15;;;;;;;9.40;2.25;;;;;;;;;;5157713;27;20034;-76
2021/12/27 02:12:46;;;;;;;11.85;1.92;;;;;;;;;;5157460;27;20019;-76
2021/12/27 02:15:13;;;;;;;12.00;2.17;;;;;;;;;;5139055;27;20033;-76
2021/12/27 02:17:42;;;;;;;12.02;2.20;;;;;;;;;;5138761;27;20031;-76
2021/12/27 02:20:11;;;;;;;7.38;1.92;;;;;;;;;;5157302;27;20050;-76
2021/12/27 02:22:40;;;;;;;9.52;2.63;;;;;;;;;;5156993;27;20105;-76
2021/12/27 02:25:08;;;;;;;10.43;2.10;;;;;;;;;;5157221;27;20029;-76
2021/12/27 02:27:36;;;;;;;11.07;1.95;;;;;;;;;;5138425;27;20033;-76
2021/12/27 02:30:05;;;;;;;12.60;2.90;;;;;;;;;;5157222;27;20053;-75
2021/12/27 02:32:32;;;;;;;10.70;2.60;;;;;;;;;;5138539;27;20034;-76
2021/12/27 02:34:59;;;;;;;11.57;2.30;;;;;;;;;;5157194;27;20015;-76
2021/12/27 02:37:26;;;;;;;11.90;2.22;;;;;;;;;;5157077;27;20343;-77
2021/12/27 02:39:53;;;;;;;10.93;2.72;;;;;;;;;;5157031;27;20054;-76
2021/12/27 02:42:21;;;;;;;14.88;2.30;;;;;;;;;;5137853;27;20050;-76
2021/12/27 02:44:48;;;;;;;9.05;2.00;;;;;;;;;;5156884;27;20022;-76
2021/12/27 02:47:16;;;;;;;12.38;2.47;;;;;;;;;;5156936;27;20023;-76
2021/12/27 02:49:43;;;;;;;11.30;1.73;;;;;;;;;;5137974;27;20019;-77
2021/12/27 02:52:10;;;;;;;8.38;2.15;;;;;;;;;;5137938;27;20391;-77
2021/12/27 02:54:41;;;;;;;6.95;1.35;;;;;;;;;;5156465;27;20038;-77
2021/12/27 02:57:09;;;;;;;8.52;1.70;;;;;;;;;;5156666;27;20046;-76
2021/12/27 02:59:36;;;;;;;12.80;1.88;;;;;;;;;;5156612;27;20022;-76
2021/12/27 03:02:04;;;;;;;10.50;1.65;;;;;;;;;;5137628;27;20029;-77
2021/12/27 03:04:35;;;;;;;10.00;1.70;;;;;;;;;;5156227;27;20027;-77
2021/12/27 03:07:02;;;;;;;7.20;2.33;;;;;;;;;;5156285;27;20102;-77
2021/12/27 03:09:29;;;;;;;11.18;2.15;;;;;;;;;;5137360;27;20015;-77
2021/12/27 03:11:56;;;;;;;7.70;1.50;;;;;;;;;;5156107;27;20026;-76
2021/12/27 03:14:23;;;;;;;10.32;1.88;;;;;;;;;;5136910;27;20033;-77
2021/12/27 03:16:51;;;;;;;7.65;1.70;;;;;;;;;;5155911;27;20023;-77
2021/12/27 03:19:18;;;;;;;6.63;1.42;;;;;;;;;;5137202;27;20030;-76
2021/12/27 03:21:45;;;;;;;7.78;1.60;;;;;;;;;;5156181;27;20022;-77
2021/12/27 03:24:12;;;;;;;7.97;1.45;;;;;;;;;;5155920;27;20454;-77
2021/12/27 03:26:39;;;;;;;6.05;1.50;;;;;;;;;;5155956;27;20023;-75
2021/12/27 03:29:06;;;;;;;10.68;1.25;;;;;;;;;;5155989;27;20090;-75
2021/12/27 03:31:37;;;;;;;5.65;1.10;;;;;;;;;;5137400;27;20023;-75
2021/12/27 03:34:04;;;;;;;5.78;1.33;;;;;;;;;;5155912;27;20395;-75
2021/12/27 03:36:37;;;;;;;5.30;1.25;;;;;;;;;;5155745;27;20029;-74
2021/12/27 03:39:09;;;;;;;6.18;1.33;;;;;;;;;;5155428;27;20106;-75
2021/12/27 03:41:36;;;;;;;6.80;1.30;;;;;;;;;;5155677;27;20027;-74
2021/12/27 03:44:04;;;;;;;8.20;1.30;;;;;;;;;;5136655;27;20079;-74
2021/12/27 03:46:31;;;;;;;5.85;1.00;;;;;;;;;;5155675;27;20023;-75
2021/12/27 03:48:59;;;;;;;7.53;1.63;;;;;;;;;;5155398;27;20011;-75
2021/12/27 03:51:26;;;;;;;6.63;1.40;;;;;;;;;;5136869;27;20033;-74
2021/12/27 03:53:53;;;;;;;7.25;1.10;;;;;;;;;;5136086;27;20043;-74
2021/12/27 03:56:23;;;;;;;7.50;1.45;;;;;;;;;;5155174;27;20019;-75
2021/12/27 03:59:08;;;;;;;4.93;1.20;;;;;;;;;;5154508;27;20018;-74
2021/12/27 04:01:35;;;;;;;6.05;1.17;;;;;;;;;;5154496;27;20091;-75
2021/12/27 04:04:02;;;;;;;8.32;1.83;;;;;;;;;;5154213;27;20014;-75
2021/12/27 04:06:29;;;;;;;5.43;1.50;;;;;;;;;;5154368;27;20134;-73
2021/12/27 04:08:56;;;;;;;6.32;1.50;;;;;;;;;;5154352;27;20027;-74
2021/12/27 04:11:24;;;;;;;6.50;0.60;;;;;;;;;;5154272;27;20018;-75
2021/12/27 04:13:51;;;;;;;3.80;0.75;;;;;;;;;;5154240;27;20026;-73
2021/12/27 04:16:18;;;;;;;7.53;1.00;;;;;;;;;;5154227;27;20027;-74
2021/12/27 04:18:45;;;;;;;8.73;1.55;;;;;;;;;;5135421;27;20391;-74
2021/12/27 04:21:12;;;;;;;2.88;0.88;;;;;;;;;;5154133;27;20023;-74
2021/12/27 04:23:41;;;;;;;6.85;1.30;;;;;;;;;;5154267;27;20026;-74
2021/12/27 04:26:08;;;;;;;3.67;0.80;;;;;;;;;;5154081;27;20141;-74
2021/12/27 04:28:35;;;;;;;3.35;0.70;;;;;;;;;;5154593;27;20015;-76
2021/12/27 04:31:03;;;;;;;4.55;1.15;;;;;;;;;;5135056;27;20019;-78
2021/12/27 04:33:30;;;;;;;3.58;0.77;;;;;;;;;;5154088;27;20037;-78
2021/12/27 04:35:57;;;;;;;4.88;0.95;;;;;;;;;;5153897;27;20027;-76
2021/12/27 04:38:24;;;;;;;4.53;0.80;;;;;;;;;;5135032;27;20027;-75
2021/12/27 04:40:53;;;;;;;7.28;0.80;;;;;;;;;;5153719;27;20022;-75
2021/12/27 04:43:21;;;;;;;4.22;1.02;;;;;;;;;;5153675;27;20015;-76
2021/12/27 04:45:49;;;;;;;6.93;1.10;;;;;;;;;;5134811;27;20019;-77
2021/12/27 04:48:17;;;;;;;3.53;0.70;;;;;;;;;;5134888;27;20026;-76
2021/12/27 04:50:44;;;;;;;3.92;0.70;;;;;;;;;;5153132;27;20031;-76
2021/12/27 04:53:11;;;;;;;2.60;0.50;;;;;;;;;;5033288;27;2845416;-76
2021/12/27 04:55:39;;;;;;;2.28;0.60;;;;;;;;;;5154804;27;20034;-78
2021/12/27 04:58:10;;;;;;;2.92;0.80;;;;;;;;;;5154529;27;20420;-75
2021/12/27 05:00:38;;;;;;;6.15;0.90;;;;;;;;;;5135715;27;20034;-75
2021/12/27 05:03:06;;;;;;;4.20;0.68;;;;;;;;;;5154362;27;20023;-74
2021/12/27 05:05:33;;;;;;;5.50;1.10;;;;;;;;;;5154685;27;20034;-75
2021/12/27 05:08:00;;;;;;;4.22;0.80;;;;;;;;;;5154497;27;20023;-75
2021/12/27 05:10:28;;;;;;;3.22;0.60;;;;;;;;;;5154338;27;20063;-75
2021/12/27 05:12:55;;;;;;;3.08;0.80;;;;;;;;;;5154491;27;20022;-75
2021/12/27 05:15:22;;;;;;;4.30;0.75;;;;;;;;;;5135792;27;20410;-74
2021/12/27 05:17:49;;;;;;;3.53;0.70;;;;;;;;;;5135645;27;20027;-72
2021/12/27 05:20:17;;;;;;;6.70;1.10;;;;;;;;;;5135459;27;20083;-72
2021/12/27 05:22:44;;;;;;;4.70;1.00;;;;;;;;;;5154179;27;20030;-73
2021/12/27 05:25:14;;;;;;;8.57;1.30;;;;;;;;;;5154381;27;20023;-73
2021/12/27 05:27:41;;;;;;;10.02;1.35;;;;;;;;;;5154216;27;20021;-73
2021/12/27 05:30:09;;;;;;;4.65;0.98;;;;;;;;;;5154280;27;20111;-73
2021/12/27 05:32:38;;;;;;;8.00;1.40;;;;;;;;;;5154258;27;20033;-74
2021/12/27 05:35:05;;;;;;;7.97;1.40;;;;;;;;;;5154306;27;20368;-74
2021/12/27 05:37:33;;;;;;;10.23;1.45;;;;;;;;;;5154219;27;20098;-73
2021/12/27 05:40:05;;;;;;;5.75;1.10;;;;;;;;;;5154115;27;20015;-73
2021/12/27 05:42:33;;;;;;;7.85;1.60;;;;;;;;;;5154109;27;20044;-74
2021/12/27 05:45:00;;;;;;;7.63;1.10;;;;;;;;;;5154219;27;20023;-73
2021/12/27 05:47:28;;;;;;;9.35;1.42;;;;;;;;;;5134977;27;20022;-74
2021/12/27 05:49:55;;;;;;;12.07;1.52;;;;;;;;;;5154427;27;20428;-73
2021/12/27 05:52:22;;;;;;;10.15;2.22;;;;;;;;;;5154045;27;20019;-73
2021/12/27 05:54:49;;;;;;;7.88;1.48;;;;;;;;;;5153865;27;20047;-74
2021/12/27 05:57:16;;;;;;;6.72;1.33;;;;;;;;;;5134933;27;20109;-74
2021/12/27 05:59:43;;;;;;;11.25;1.65;;;;;;;;;;5153953;27;20034;-75
2021/12/27 06:02:11;;;;;;;7.53;1.85;;;;;;;;;;5134916;27;20113;-74
2021/12/27 06:04:38;;;;;;;11.48;2.13;;;;;;;;;;5138769;27;20023;-75
2021/12/27 06:07:05;;;;;;;12.77;2.42;;;;;;;;;;5138752;27;20053;-74
2021/12/27 06:09:32;;;;;;;11.65;1.77;;;;;;;;;;5157465;27;20495;-72
2021/12/27 06:11:59;;;;;;;10.52;1.77;;;;;;;;;;5157288;27;20044;-74
2021/12/27 06:14:26;;;;;;;9.73;1.85;;;;;;;;;;5138591;27;20033;-74
2021/12/27 06:16:54;;;;;;;10.90;2.28;;;;;;;;;;5157456;27;20023;-74
2021/12/27 06:19:24;;;;;;;12.57;2.08;;;;;;;;;;5138849;27;20023;-74
2021/12/27 06:21:51;;;;;;;;;;;;;;;;;;5157657;27;20022;-74
2021/12/27 06:24:19;;;;;;;9.35;2.15;;;;;;;;;;5138505;27;19903;-73
2021/12/27 06:26:47;;;;;;;8.85;1.92;;;;;;;;;;5138965;27;20121;-73
2021/12/27 06:29:14;;;;;;;9.00;1.50;;;;;;;;;;5138534;27;20015;-73
2021/12/27 06:31:41;;;;;;;8.70;2.40;;;;;;;;;;5138218;27;20027;-72
2021/12/27 06:34:09;;;;;;;10.07;2.08;;;;;;;;;;5137491;27;20073;-73
2021/12/27 06:36:36;;;;;;;10.88;2.10;;;;;;;;;;5157152;27;20359;-72
2021/12/27 06:39:05;;;;;;;11.32;2.00;;;;;;;;;;5157018;27;20030;-72
2021/12/27 06:41:32;;;;;;;11.18;1.92;;;;;;;;;;5156909;27;20038;-74
2021/12/27 06:43:59;;;;;;;12.07;2.28;;;;;;;;;;5138043;27;20109;-73
2021/12/27 06:46:27;;;;;;;8.13;1.40;;;;;;;;;;5156822;27;20015;-73
2021/12/27 06:48:54;;;;;;;10.55;2.13;;;;;;;;;;5156806;27;20067;-73
2021/12/27 06:51:21;;;;;;;6.75;1.58;;;;;;;;;;5156810;27;20044;-73
2021/12/27 06:53:48;;;;;;;10.48;1.38;;;;;;;;;;5137582;27;20043;-73
2021/12/27 06:56:16;;;;;;;10.43;1.85;;;;;;;;;;5156752;27;20026;-73
2021/12/27 06:58:43;;;;;;;9.23;1.85;;;;;;;;;;5156577;27;20466;-72
2021/12/27 07:01:10;;;;;;;9.45;1.55;;;;;;;;;;5156426;27;20079;-72
2021/12/27 07:03:37;;;;;;;6.28;1.60;;;;;;;;;;5137425;27;20014;-73
2021/12/27 07:06:05;;;;;;;10.35;2.05;;;;;;;;;;5137951;27;20102;-72
2021/12/27 07:08:32;;;;;;;10.07;1.90;;;;;;;;;;5156511;27;20019;-74
2021/12/27 07:10:59;;;;;;;11.15;2.53;;;;;;;;;;5137863;27;20388;-75
2021/12/27 07:13:26;;;;;;;10.10;1.58;;;;;;;;;;5156139;27;20030;-74
2021/12/27 07:15:53;;;;;;;8.60;2.00;;;;;;;;;;5136378;27;20027;-74
2021/12/27 07:18:23;;;;;;;7.63;1.65;;;;;;;;;;5156126;27;20027;-75
2021/12/27 07:20:51;;;;;;;13.82;2.28;;;;;;;;;;5156167;27;20483;-75
2021/12/27 07:23:18;;;;;;;12.05;2.42;;;;;;;;;;5155984;27;20171;-72
2021/12/27 07:25:45;;;;;;;17.20;2.78;;;;;;;;;;5137047;27;20025;-73
2021/12/27 07:28:13;;;;;;;10.63;2.95;;;;;;;;;;5156023;27;20436;-73
2021/12/27 07:30:40;;;;;;;13.13;2.40;;;;;;;;;;5137082;27;20018;-73
2021/12/27 07:33:07;;;;;;;12.35;2.05;;;;;;;;;;5155908;27;20025;-74
2021/12/27 07:35:34;;;;;;;11.00;2.20;;;;;;;;;;5136870;27;20387;-74
2021/12/27 07:38:02;;;;;;;12.35;2.22;;;;;;;;;;5136841;27;20050;-73
2021/12/27 07:40:29;;;;;;;12.05;2.55;;;;;;;;;;5155671;27;20018;-73
2021/12/27 07:42:56;;;;;;;12.48;2.35;;;;;;;;;;5155478;27;20079;-73
2021/12/27 07:45:23;;;;;;;11.85;2.53;;;;;;;;;;5155317;27;20019;-73
2021/12/27 07:47:51;;;;;;;16.70;2.67;;;;;;;;;;5155276;27;20493;-73
2021/12/27 07:50:19;;;;;;;8.18;2.30;;;;;;;;;;5155186;27;20051;-74
2021/12/27 07:52:46;;;;;;;14.75;2.40;;;;;;;;;;5155042;27;20026;-73
2021/12/27 07:55:13;;;;;;;11.07;1.98;;;;;;;;;;5155467;27;20505;-73
2021/12/27 07:57:40;;;;;;;11.85;2.85;;;;;;;;;;5136522;27;20029;-74
2021/12/27 08:00:08;;;;;;;11.38;2.53;;;;;;;;;;5136620;27;20022;-73
2021/12/27 08:02:36;;;;;;;12.35;2.58;;;;;;;;;;5154969;27;20440;-74
2021/12/27 08:05:03;;;;;;;10.02;3.03;;;;;;;;;;5154859;27;20382;-74
2021/12/27 08:07:30;;;;;;;9.88;2.20;;;;;;;;;;5154876;27;20490;-74
2021/12/27 08:09:57;;;;;;;13.65;2.35;;;;;;;;;;5154849;27;20546;-76
2021/12/27 08:12:25;;;;;;;11.20;2.72;;;;;;;;;;5136015;27;20045;-75
2021/12/27 08:14:52;;;;;;;8.77;2.15;;;;;;;;;;5136000;27;20023;-74
2021/12/27 08:17:19;;;;;;;11.30;2.10;;;;;;;;;;5154868;27;20019;-73
2021/12/27 08:19:47;;;;;;;13.27;2.65;;;;;;;;;;5154782;27;20054;-74
2021/12/27 08:22:14;;;;;;;8.45;2.13;;;;;;;;;;5135603;27;20394;-74
2021/12/27 08:24:42;;;;;;;6.72;1.67;;;;;;;;;;5154712;27;20409;-75
2021/12/27 08:27:09;;;;;;;8.18;1.60;;;;;;;;;;5154331;27;20026;-75
2021/12/27 08:29:37;;;;;;;10.40;1.63;;;;;;;;;;5154573;27;20027;-74
2021/12/27 08:32:07;;;;;;;6.28;1.30;;;;;;;;;;5154582;27;20046;-74
2021/12/27 08:34:34;;;;;;;;;;;;;;;;;;5136327;27;20095;-74
2021/12/27 08:37:01;;;;;;;8.48;1.85;;;;;;;;;;5154677;27;19909;-74
2021/12/27 08:39:28;;;;;;;11.90;1.77;;;;;;;;;;5135878;27;20025;-74
2021/12/27 08:41:56;;;;;;;7.80;2.10;;;;;;;;;;5154526;27;20346;-73
2021/12/27 08:44:23;;;;;;;9.20;1.52;;;;;;;;;;5154659;27;20015;-73
2021/12/27 08:46:50;;;;;;;9.80;1.90;;;;;;;;;;5154514;27;20360;-74
2021/12/27 08:49:17;;;;;;;11.55;2.08;;;;;;;;;;5154458;27;20042;-74
2021/12/27 08:51:44;;;;;;;10.07;1.75;;;;;;;;;;5135616;27;20025;-74
2021/12/27 08:54:12;;;;;;;11.40;1.92;;;;;;;;;;5154291;27;20051;-74
2021/12/27 08:56:39;;;;;;;12.23;2.20;;;;;;;;;;5154512;27;20023;-74
2021/12/27 08:59:09;;;;;;;12.85;3.33;;;;;;;;;;5135988;27;20420;-75
2021/12/27 09:01:36;;;;;;;12.25;3.25;;;;;;;;;;5154678;27;20031;-74
2021/12/27 09:04:04;;;;;;;9.88;2.10;;;;;;;;;;5135871;27;20107;-75
2021/12/27 09:06:35;;;;;;;13.68;2.67;;;;;;;;;;5154517;27;20014;-74
2021/12/27 09:09:04;;;;;;;11.50;3.10;;;;;;;;;;5154421;27;20015;-75
2021/12/27 09:11:34;;;;;;;10.93;2.17;;;;;;;;;;5154310;27;20060;-74
2021/12/27 09:14:01;;;;;;;10.93;2.67;;;;;;;;;;5154427;27;20041;-76
2021/12/27 09:16:29;;;;;;;11.18;2.40;;;;;;;;;;5154368;27;20023;-75
2021/12/27 09:18:56;;;;;;;14.10;2.17;;;;;;;;;;5154474;27;20023;-76
2021/12/27 09:21:24;;;;;;;8.65;2.17;;;;;;;;;;5135349;27;20087;-77
2021/12/27 09:23:52;;;;;;;11.02;2.83;;;;;;;;;;5154208;27;20442;-77
2021/12/27 09:26:19;;;;;;;9.48;2.15;;;;;;;;;;5154256;27;20015;-77
2021/12/27 09:28:47;;;;;;;16.33;3.53;;;;;;;;;;5154326;27;20025;-76
2021/12/27 09:31:14;;;;;;;14.38;3.35;;;;;;;;;;5154363;27;20019;-75
2021/12/27 09:33:41;;;;;;;11.60;2.35;;;;;;;;;;5154398;27;20215;-74
2021/12/27 09:36:09;;;;;;;15.68;2.72;;;;;;;;;;5135290;27;20026;-74
2021/12/27 09:38:36;;;;;;;12.73;3.08;;;;;;;;;;5156468;27;20098;-74
2021/12/27 09:41:03;;;;;;;9.95;2.20;;;;;;;;;;5158042;27;20022;-75
2021/12/27 09:43:31;;;;;;;12.55;2.60;;;;;;;;;;5158008;27;20387;-74
2021/12/27 09:45:58;;;;;;;9.48;1.90;;;;;;;;;;5139301;27;20031;-75
2021/12/27 09:48:25;;;;;;;14.13;2.00;;;;;;;;;;5157929;27;20015;-76
2021/12/27 09:50:55;;;;;;;10.27;1.80;;;;;;;;;;5157848;27;20044;-74
2021/12/27 09:53:23;;;;;;;9.98;1.83;;;;;;;;;;5157723;27;20039;-75
2021/12/27 09:55:51;;;;;;;12.93;2.50;;;;;;;;;;5157815;27;20098;-76
2021/12/27 09:58:19;;;;;;;10.10;1.55;;;;;;;;;;5138726;27;20117;-76
2021/12/27 10:00:47;;;;;;;12.05;1.98;;;;;;;;;;5157694;27;20026;-77
2021/12/27 10:03:14;;;;;;;10.77;2.28;;;;;;;;;;5138850;27;20109;-77
2021/12/27 10:05:41;;;;;;;10.88;2.10;;;;;;;;;;5138623;27;20019;-75
2021/12/27 10:08:08;;;;;;;10.38;2.03;;;;;;;;;;5157601;27;20042;-76
2021/12/27 10:10:36;;;;;;;13.80;2.35;;;;;;;;;;5157603;27;20030;-76
2021/12/27 10:13:11;;;;;;;9.02;1.77;;;;;;;;;;5138966;27;20023;-74
2021/12/27 10:15:39;;;;;;;11.70;1.92;;;;;;;;;;5157469;27;20502;-75
2021/12/27 10:18:10;;;;;;;12.85;2.05;;;;;;;;;;5157414;27;20022;-76
2021/12/27 10:20:37;;;;;;;11.32;2.30;;;;;;;;;;5157271;27;20022;-78
2021/12/27 10:23:05;;;;;;;10.27;1.73;;;;;;;;;;5157318;27;20506;-78
2021/12/27 10:25:32;;;;;;;8.05;1.73;;;;;;;;;;5157225;27;20014;-77
2021/12/27 10:28:00;;;;;;;10.68;1.70;;;;;;;;;;5157399;27;20019;-78
2021/12/27 10:30:29;;;;;;;11.02;1.73;;;;;;;;;;5138434;27;20369;-77
2021/12/27 10:33:02;;;;;;;12.55;1.88;;;;;;;;;;5157235;27;20393;-78
2021/12/27 10:35:40;;;;;;;12.02;2.25;;;;;;;;;;5157133;27;20501;-77
2021/12/27 10:38:15;;;;;;;12.80;2.45;;;;;;;;;;5157220;27;20030;-77
2021/12/27 10:40:53;;;;;;;12.43;2.42;;;;;;;;;;5138117;27;20031;-77
2021/12/27 10:43:34;;;;;;;10.95;2.03;;;;;;;;;;5138336;27;20371;-77
2021/12/27 10:46:05;;;;;;;13.95;1.30;;;;;;;;;;5137987;27;20071;-76
2021/12/27 10:48:33;;;;;;;13.00;2.20;;;;;;;;;;5138010;27;20019;-76
2021/12/27 10:51:01;;;;;;;16.00;1.73;;;;;;;;;;5138338;27;20044;-76
2021/12/27 10:53:28;;;;;;;10.32;2.70;;;;;;;;;;5156689;27;20039;-79
2021/12/27 10:55:56;;;;;;;12.13;2.90;;;;;;;;;;5137911;27;20053;-78
2021/12/27 10:58:24;;;;;;;11.77;2.30;;;;;;;;;;5138634;27;20026;-77
2021/12/27 11:00:58;;;;;;;15.38;2.63;;;;;;;;;;5138222;27;20030;-79
2021/12/27 11:03:27;;;;;;;11.90;2.30;;;;;;;;;;5156694;27;20424;-78
2021/12/27 11:05:55;;;;;;;12.18;2.75;;;;;;;;;;5156637;27;20021;-80
2021/12/27 11:08:22;;;;;;;12.27;2.33;;;;;;;;;;5156710;27;20015;-78
2021/12/27 11:10:50;;;;;;;14.48;2.30;;;;;;;;;;5156267;27;20011;-78
2021/12/27 11:13:17;;;;;;;10.25;2.10;;;;;;;;;;5156358;27;20066;-78
2021/12/27 11:15:45;;;;;;;15.75;2.60;;;;;;;;;;5156451;27;20027;-79
2021/12/27 11:18:13;;;;;;;20.88;3.63;;;;;;;;;;5137620;27;20049;-78
2021/12/27 11:20:43;;;;;;;11.23;2.65;;;;;;;;;;5156265;27;20026;-80
2021/12/27 11:23:11;;;;;;;16.23;2.80;;;;;;;;;;5137346;27;20034;-78
2021/12/27 11:25:39;;;;;;;14.23;2.38;;;;;;;;;;5156991;27;20098;-79
2021/12/27 11:28:24;;;;;;;12.73;1.98;;;;;;;;;;5156400;27;20029;-78
2021/12/27 11:30:51;;;;;;;12.40;2.22;;;;;;;;;;5156118;27;20019;-79
2021/12/27 11:33:20;;;;;;;13.48;1.80;;;;;;;;;;5137636;27;20027;-79
2021/12/27 11:35:59;;;;;;;12.82;2.15;;;;;;;;;;5156068;27;20103;-78
2021/12/27 11:38:29;;;;;;;16.25;2.00;;;;;;;;;;5156256;27;20049;-79
2021/12/27 11:40:57;;;;;;;18.27;2.28;;;;;;;;;;5137063;27;20022;-77
2021/12/27 11:43:24;;;;;;;16.05;2.50;;;;;;;;;;5136939;27;20046;-78
2021/12/27 11:45:55;;;;;;;13.27;2.38;;;;;;;;;;5155841;27;20090;-77
2021/12/27 11:48:24;;;;;;;14.00;2.50;;;;;;;;;;5136989;27;20071;-77
2021/12/27 11:50:58;;;;;;;16.33;2.40;;;;;;;;;;5155717;27;20477;-76
2021/12/27 11:53:34;;;;;;;11.23;1.77;;;;;;;;;;5136547;27;20099;-78
2021/12/27 11:56:02;;;;;;;13.30;1.75;;;;;;;;;;5136630;27;20030;-77
2021/12/27 11:58:32;;;;;;;8.60;1.60;;;;;;;;;;5136778;27;20031;-77
2021/12/27 12:01:00;;;;;;;7.53;1.63;;;;;;;;;;5155119;27;20023;-77
2021/12/27 12:03:42;;;;;;;6.93;1.48;;;;;;;;;;5137114;27;20525;-77
2021/12/27 12:06:28;;;;;;;13.25;2.00;;;;;;;;;;5155540;27;20015;-78
2021/12/27 12:08:57;;;;;;;9.85;1.25;;;;;;;;;;5136638;27;20037;-78
2021/12/27 12:11:32;;;;;;;9.18;1.88;;;;;;;;;;5155288;27;20019;-78
2021/12/27 12:14:18;;;;;;;10.43;1.40;;;;;;;;;;5155272;27;20468;-78
2021/12/27 12:16:49;;;;;;;9.02;1.15;;;;;;;;;;5155155;27;20034;-78
2021/12/27 12:19:16;;;;;;;8.63;2.10;;;;;;;;;;5136265;27;20071;-78
2021/12/27 12:21:44;;;;;;;8.02;1.40;;;;;;;;;;5136513;27;20027;-78
2021/12/27 12:24:22;;;;;;;7.25;1.52;;;;;;;;;;5155230;27;20049;-78
2021/12/27 12:27:00;;;;;;;8.52;1.25;;;;;;;;;;5155156;27;20025;-78
2021/12/27 12:29:30;;;;;;;13.98;2.38;;;;;;;;;;5136496;27;20432;-78
2021/12/27 12:31:59;;;;;;;7.53;1.38;;;;;;;;;;5136454;27;20026;-78
2021/12/27 12:34:27;;;;;;;12.43;1.70;;;;;;;;;;5136060;27;20383;-78
2021/12/27 12:36:57;;;;;;;13.10;1.50;;;;;;;;;;5154833;27;20466;-78
2021/12/27 12:39:25;;;;;;;8.90;1.67;;;;;;;;;;5154858;27;20466;-78
2021/12/27 12:42:05;;;;;;;10.18;1.60;;;;;;;;;;5135976;27;20054;-77
2021/12/27 12:44:32;;;;;;;9.13;1.17;;;;;;;;;;5154806;27;20387;-78
2021/12/27 12:47:02;;;;;;;7.40;1.55;;;;;;;;;;5154692;27;20019;-77
2021/12/27 12:49:30;;;;;;;8.05;1.63;;;;;;;;;;5154710;27;20019;-77
2021/12/27 12:52:02;;;;;;;9.55;1.27;;;;;;;;;;5135777;27;20045;-77
2021/12/27 12:54:33;;;;;;;6.43;1.20;;;;;;;;;;5135527;27;20047;-77
2021/12/27 12:56:59;;;;;;;;;;;;;;;;;;5154952;27;20382;-77
2021/12/27 12:59:31;;;;;;;10.70;1.23;;;;;;;;;;5154699;27;19906;-76
2021/12/27 13:02:01;;;;;;;8.80;2.10;;;;;;;;;;5135451;27;20057;-76
2021/12/27 13:04:40;;;;;;;7.20;1.60;;;;;;;;;;5154445;27;20554;-77
2021/12/27 13:07:08;;;;;;;9.30;1.42;;;;;;;;;;5154552;27;20034;-77
2021/12/27 13:09:46;;;;;;;8.77;1.25;;;;;;;;;;5154426;27;20019;-77
2021/12/27 13:12:14;;;;;;;10.18;1.33;;;;;;;;;;5154580;27;20098;-77
2021/12/27 13:14:42;;;;;;;9.50;1.55;;;;;;;;;;5139921;27;20487;-76
2021/12/27 13:17:19;;;;;;;7.22;1.30;;;;;;;;;;5158656;27;20030;-76
2021/12/27 13:20:04;;;;;;;5.38;0.98;;;;;;;;;;5158746;27;20483;-75
2021/12/27 13:22:39;;;;;;;8.27;1.10;;;;;;;;;;5139679;27;20022;-76
2021/12/27 13:25:06;;;;;;;11.68;1.60;;;;;;;;;;5158500;27;20086;-76
2021/12/27 13:27:33;;;;;;;5.90;1.02;;;;;;;;;;5158566;27;20019;-75
2021/12/27 13:30:18;;;;;;;9.43;1.88;;;;;;;;;;5158394;27;20019;-75
2021/12/27 13:32:45;;;;;;;6.78;1.35;;;;;;;;;;5158498;27;20102;-76
2021/12/27 13:35:14;;;;;;;8.68;1.30;;;;;;;;;;5139801;27;20023;-76
2021/12/27 13:37:42;;;;;;;8.85;0.93;;;;;;;;;;5139292;27;20026;-76
2021/12/27 13:40:14;;;;;;;5.28;0.90;;;;;;;;;;5158253;27;20022;-75
2021/12/27 13:42:42;;;;;;;6.75;0.85;;;;;;;;;;5158188;27;20033;-76
2021/12/27 13:45:13;;;;;;;5.10;0.80;;;;;;;;;;5158115;27;20042;-76
2021/12/27 13:47:51;;;;;;;6.97;1.73;;;;;;;;;;5139317;27;20497;-76
2021/12/27 13:50:28;;;;;;;6.93;1.10;;;;;;;;;;5139419;27;20019;-76
2021/12/27 13:52:56;;;;;;;9.80;1.15;;;;;;;;;;5157865;27;20031;-77
2021/12/27 13:55:27;;;;;;;9.27;1.65;;;;;;;;;;5157969;27;20493;-76
2021/12/27 13:57:54;;;;;;;9.77;0.98;;;;;;;;;;5157973;27;20022;-76
2021/12/27 14:00:26;;;;;;;5.50;1.10;;;;;;;;;;5157934;27;20023;-76
2021/12/27 14:02:53;;;;;;;7.20;1.30;;;;;;;;;;5157788;27;20102;-76
2021/12/27 14:05:32;;;;;;;12.13;1.65;;;;;;;;;;5139094;27;20075;-76
2021/12/27 14:08:12;;;;;;;9.80;1.10;;;;;;;;;;5138906;27;20042;-76
2021/12/27 14:10:39;;;;;;;10.88;2.25;;;;;;;;;;5139235;27;20075;-76
2021/12/27 14:13:07;;;;;;;5.70;1.25;;;;;;;;;;5157694;27;20042;-76
2021/12/27 14:15:37;;;;;;;5.55;0.88;;;;;;;;;;5138729;27;20026;-76
2021/12/27 14:18:17;;;;;;;7.25;1.48;;;;;;;;;;5157473;27;20050;-76
2021/12/27 14:21:02;;;;;;;5.67;1.10;;;;;;;;;;5138616;27;20037;-75
2021/12/27 14:23:29;;;;;;;7.45;1.13;;;;;;;;;;5156881;27;20350;-76
2021/12/27 14:26:08;;;;;;;9.77;1.15;;;;;;;;;;5157395;27;20108;-76
2021/12/27 14:28:35;;;;;;;7.88;1.25;;;;;;;;;;5138540;27;20026;-76
2021/12/27 14:31:02;;;;;;;11.35;1.42;;;;;;;;;;5157242;27;20030;-76
2021/12/27 14:33:30;;;;;;;8.88;1.00;;;;;;;;;;5157226;27;20439;-77
2021/12/27 14:36:02;;;;;;;8.98;1.20;;;;;;;;;;5138316;27;20027;-76
2021/12/27 14:38:30;;;;;;;11.75;1.50;;;;;;;;;;5157212;27;20023;-77
2021/12/27 14:41:01;;;;;;;8.25;1.40;;;;;;;;;;5138501;27;20026;-76
2021/12/27 14:43:33;;;;;;;8.23;1.70;;;;;;;;;;5156951;27;20023;-76
2021/12/27 14:46:00;;;;;;;8.32;1.02;;;;;;;;;;5137988;27;20483;-76
2021/12/27 14:48:28;;;;;;;7.63;1.35;;;;;;;;;;5156947;27;20505;-76
2021/12/27 14:50:55;;;;;;;4.93;1.02;;;;;;;;;;5156862;27;20326;-76